Time;durP1;ratioP1;P1;durP2;ratioP2;P2;SDS_P1;SDS_P2;PMS_P1;PMS_P2;Temp;Humidity;BMP_temperature;BMP_pressure;BME280_temperature;BME280_humidity;BME280_pressure;Samples;Min_cycle;Max_cycle;Signal;HPM_P1;HPM_P2
2024/01/19 00:00:16;;;;;;;9.40;2.88;;;;;;;;;;4997448;28;99557;-70
2024/01/19 00:02:42;;;;;;;9.15;3.42;;;;;;;;;;5001932;28;98463;-69
2024/01/19 00:05:09;;;;;;;9.63;3.30;;;;;;;;;;4999143;28;100171;-70
2024/01/19 00:07:35;;;;;;;6.57;3.15;;;;;;;;;;4994445;28;99852;-70
2024/01/19 00:10:02;;;;;;;10.68;3.17;;;;;;;;;;4996857;28;100114;-70
2024/01/19 00:12:35;;;;;;;10.95;3.55;;;;;;;;;;4998034;28;99501;-70
2024/01/19 00:15:05;;;;;;;9.13;3.28;;;;;;;;;;4998734;28;97819;-69
2024/01/19 00:17:31;;;;;;;9.40;3.42;;;;;;;;;;5000072;28;98592;-70
2024/01/19 00:19:57;;;;;;;10.65;3.25;;;;;;;;;;4996744;28;100931;-70
2024/01/19 00:22:24;;;;;;;10.32;3.75;;;;;;;;;;4994348;28;99353;-70
2024/01/19 00:24:50;;;;;;;6.93;3.28;;;;;;;;;;4999082;28;100249;-69
2024/01/19 00:27:16;;;;;;;11.88;3.13;;;;;;;;;;4994782;28;100125;-69
2024/01/19 00:29:43;;;;;;;10.93;2.90;;;;;;;;;;5001342;28;98743;-69
2024/01/19 00:32:09;;;;;;;6.10;2.92;;;;;;;;;;4997581;28;99374;-69
2024/01/19 00:34:36;;;;;;;9.43;3.13;;;;;;;;;;4999744;28;98537;-69
2024/01/19 00:37:02;;;;;;;10.30;3.08;;;;;;;;;;5000089;28;99107;-70
2024/01/19 00:39:29;;;;;;;5.57;2.72;;;;;;;;;;4997617;28;99163;-69
2024/01/19 00:41:55;;;;;;;9.70;2.80;;;;;;;;;;4997470;28;98985;-69
2024/01/19 00:44:22;;;;;;;11.15;2.65;;;;;;;;;;4997415;28;99034;-70
2024/01/19 00:46:49;;;;;;;4.93;2.05;;;;;;;;;;4998387;28;100502;-69
2024/01/19 00:49:16;;;;;;;6.55;2.20;;;;;;;;;;4997587;28;98920;-70
2024/01/19 00:51:42;;;;;;;7.82;2.30;;;;;;;;;;4995227;28;99468;-70
2024/01/19 00:54:08;;;;;;;7.90;2.10;;;;;;;;;;4997165;28;98831;-70
2024/01/19 00:56:35;;;;;;;7.38;2.53;;;;;;;;;;4997368;28;99475;-69
2024/01/19 00:59:01;;;;;;;10.95;2.40;;;;;;;;;;4994531;28;99580;-69
2024/01/19 01:01:27;;;;;;;5.18;2.08;;;;;;;;;;4997032;28;98997;-69
2024/01/19 01:03:55;;;;;;;7.07;2.10;;;;;;;;;;4998490;28;99629;-66
2024/01/19 01:06:21;;;;;;;9.73;2.30;;;;;;;;;;4995091;28;100659;-67
2024/01/19 01:08:48;;;;;;;7.22;2.20;;;;;;;;;;5001251;28;98976;-66
2024/01/19 01:11:14;;;;;;;2.20;1.45;;;;;;;;;;4999129;28;99346;-66
2024/01/19 01:13:40;;;;;;;3.03;1.60;;;;;;;;;;5000251;28;99505;-66
2024/01/19 01:16:07;;;;;;;10.82;1.73;;;;;;;;;;4998736;28;99169;-67
2024/01/19 01:18:33;;;;;;;3.38;1.45;;;;;;;;;;4992979;28;102886;-67
2024/01/19 01:21:01;;;;;;;2.53;1.25;;;;;;;;;;4993315;28;98548;-66
2024/01/19 01:23:27;;;;;;;5.78;1.17;;;;;;;;;;4991731;28;100802;-66
2024/01/19 01:25:54;;;;;;;3.95;1.42;;;;;;;;;;4993214;28;99894;-66
2024/01/19 01:28:20;;;;;;;1.77;0.80;;;;;;;;;;4996103;28;97859;-67
2024/01/19 01:30:47;;;;;;;4.63;1.00;;;;;;;;;;5001589;28;98707;-66
2024/01/19 01:33:13;;;;;;;3.03;1.00;;;;;;;;;;4988782;28;102746;-67
2024/01/19 01:35:40;;;;;;;1.77;1.00;;;;;;;;;;4999259;28;99446;-66
2024/01/19 01:38:06;;;;;;;2.88;0.82;;;;;;;;;;4998961;28;99615;-66
2024/01/19 01:40:33;;;;;;;1.88;0.88;;;;;;;;;;4998214;28;98479;-66
2024/01/19 01:43:00;;;;;;;5.80;0.90;;;;;;;;;;4997582;28;101699;-67
2024/01/19 01:45:27;;;;;;;4.32;0.93;;;;;;;;;;4997571;28;99798;-67
2024/01/19 01:47:54;;;;;;;1.60;1.20;;;;;;;;;;4996576;28;98832;-67
2024/01/19 01:50:21;;;;;;;2.03;1.08;;;;;;;;;;5000587;28;99206;-67
2024/01/19 01:52:48;;;;;;;3.70;1.10;;;;;;;;;;5000980;28;98654;-66
2024/01/19 01:55:15;;;;;;;1.15;1.02;;;;;;;;;;4996220;28;98762;-66
2024/01/19 01:57:42;;;;;;;4.07;0.98;;;;;;;;;;4995900;28;99875;-67
2024/01/19 02:00:09;;;;;;;5.15;1.55;;;;;;;;;;4998635;28;99217;-66
2024/01/19 02:02:36;;;;;;;4.57;1.10;;;;;;;;;;4995098;28;99830;-66
2024/01/19 02:05:05;;;;;;;3.28;0.90;;;;;;;;;;4995564;28;99464;-67
2024/01/19 02:07:31;;;;;;;3.42;1.20;;;;;;;;;;5000958;28;98961;-66
2024/01/19 02:09:58;;;;;;;4.55;1.40;;;;;;;;;;5002151;28;100169;-67
2024/01/19 02:12:24;;;;;;;4.93;1.02;;;;;;;;;;4999892;28;102711;-66
2024/01/19 02:14:51;;;;;;;2.20;1.23;;;;;;;;;;5003196;28;98535;-67
2024/01/19 02:17:18;;;;;;;3.95;1.45;;;;;;;;;;5007743;28;102273;-66
2024/01/19 02:19:44;;;;;;;6.93;1.23;;;;;;;;;;4998059;28;98735;-67
2024/01/19 02:22:11;;;;;;;6.82;1.63;;;;;;;;;;4999806;28;99441;-67
2024/01/19 02:24:37;;;;;;;4.60;1.20;;;;;;;;;;5000707;28;100193;-67
2024/01/19 02:27:05;;;;;;;8.90;1.55;;;;;;;;;;4995787;28;98581;-66
2024/01/19 02:29:31;;;;;;;11.63;1.55;;;;;;;;;;5001828;28;99473;-67
2024/01/19 02:31:57;;;;;;;4.55;1.35;;;;;;;;;;5002739;28;102148;-66
2024/01/19 02:34:24;;;;;;;2.58;1.10;;;;;;;;;;4999441;28;98522;-67
2024/01/19 02:36:50;;;;;;;5.15;1.80;;;;;;;;;;5003370;28;100183;-66
2024/01/19 02:39:17;;;;;;;9.30;1.73;;;;;;;;;;4996491;28;99522;-67
2024/01/19 02:41:45;;;;;;;7.07;1.60;;;;;;;;;;5002046;28;100308;-67
2024/01/19 02:44:12;;;;;;;3.83;1.23;;;;;;;;;;4994436;28;99470;-67
2024/01/19 02:46:38;;;;;;;6.80;2.00;;;;;;;;;;5001826;28;98516;-67
2024/01/19 02:49:05;;;;;;;6.35;1.88;;;;;;;;;;5000417;28;100511;-67
2024/01/19 02:51:31;;;;;;;6.95;1.60;;;;;;;;;;5001103;28;99682;-67
2024/01/19 02:53:58;;;;;;;12.57;1.85;;;;;;;;;;5001376;28;98653;-67
2024/01/19 02:56:24;;;;;;;4.97;1.33;;;;;;;;;;4995649;28;98680;-66
2024/01/19 02:58:50;;;;;;;4.30;1.17;;;;;;;;;;4998888;28;99518;-67
2024/01/19 03:01:18;;;;;;;9.60;1.85;;;;;;;;;;5002985;28;98546;-66
2024/01/19 03:03:44;;;;;;;3.92;2.00;;;;;;;;;;5001484;28;99496;-67
2024/01/19 03:06:11;;;;;;;2.20;1.40;;;;;;;;;;5001674;28;98077;-67
2024/01/19 03:08:37;;;;;;;3.42;1.10;;;;;;;;;;4998705;28;98590;-67
2024/01/19 03:11:04;;;;;;;8.32;1.85;;;;;;;;;;4997569;28;100474;-67
2024/01/19 03:13:30;;;;;;;3.47;1.70;;;;;;;;;;4999598;28;99312;-66
2024/01/19 03:15:58;;;;;;;6.75;1.90;;;;;;;;;;4992313;28;99836;-66
2024/01/19 03:18:24;;;;;;;4.28;1.67;;;;;;;;;;4989832;28;100267;-66
2024/01/19 03:20:50;;;;;;;5.97;1.67;;;;;;;;;;5002602;28;98693;-67
2024/01/19 03:23:17;;;;;;;6.47;2.00;;;;;;;;;;4996949;28;99163;-67
2024/01/19 03:25:43;;;;;;;7.85;1.65;;;;;;;;;;4998033;28;98675;-67
2024/01/19 03:28:09;;;;;;;4.13;1.60;;;;;;;;;;4998209;28;99284;-66
2024/01/19 03:30:37;;;;;;;6.22;1.60;;;;;;;;;;4998415;28;98846;-67
2024/01/19 03:33:03;;;;;;;4.72;1.65;;;;;;;;;;4999363;28;98828;-66
2024/01/19 03:35:30;;;;;;;6.28;1.70;;;;;;;;;;5000034;28;100182;-66
2024/01/19 03:37:56;;;;;;;6.38;1.40;;;;;;;;;;4992632;28;101275;-67
2024/01/19 03:40:22;;;;;;;3.92;1.80;;;;;;;;;;5001690;28;98863;-67
2024/01/19 03:42:49;;;;;;;8.45;1.63;;;;;;;;;;4994953;28;100154;-66
2024/01/19 03:45:15;;;;;;;10.70;1.65;;;;;;;;;;5005436;28;99515;-66
2024/01/19 03:47:43;;;;;;;5.55;1.73;;;;;;;;;;4995461;28;104313;-66
2024/01/19 03:50:10;;;;;;;5.38;2.15;;;;;;;;;;5001637;28;99688;-66
2024/01/19 03:52:37;;;;;;;5.72;1.95;;;;;;;;;;4992517;28;98947;-66
2024/01/19 03:55:05;;;;;;;14.93;2.03;;;;;;;;;;5000095;28;99598;-66
2024/01/19 03:57:31;;;;;;;6.25;1.73;;;;;;;;;;4994507;28;99261;-66
2024/01/19 03:59:57;;;;;;;6.50;2.05;;;;;;;;;;4999727;28;98600;-66
2024/01/19 04:02:24;;;;;;;5.55;1.70;;;;;;;;;;4994376;28;99453;-66
2024/01/19 04:04:50;;;;;;;5.15;2.10;;;;;;;;;;5005140;28;99974;-66
2024/01/19 04:07:16;;;;;;;5.93;1.48;;;;;;;;;;5000468;28;99596;-67
2024/01/19 04:09:43;;;;;;;5.85;2.05;;;;;;;;;;4994582;28;99454;-67
2024/01/19 04:12:11;;;;;;;5.60;1.67;;;;;;;;;;4998105;28;98467;-67
2024/01/19 04:14:37;;;;;;;12.45;2.50;;;;;;;;;;4998570;28;101832;-67
2024/01/19 04:17:03;;;;;;;10.13;2.10;;;;;;;;;;4999842;28;101865;-66
2024/01/19 04:19:30;;;;;;;11.45;1.92;;;;;;;;;;5000106;28;97859;-67
2024/01/19 04:21:56;;;;;;;10.95;1.88;;;;;;;;;;4996406;28;99862;-66
2024/01/19 04:24:22;;;;;;;4.75;1.50;;;;;;;;;;4999753;28;99506;-67
2024/01/19 04:26:49;;;;;;;10.30;1.90;;;;;;;;;;5001632;28;99323;-67
2024/01/19 04:29:15;;;;;;;2.63;1.77;;;;;;;;;;5001170;28;99488;-66
2024/01/19 04:31:41;;;;;;;10.93;2.50;;;;;;;;;;4998288;28;98568;-66
2024/01/19 04:34:08;;;;;;;6.88;1.88;;;;;;;;;;4994498;28;99245;-66
2024/01/19 04:36:35;;;;;;;6.63;2.17;;;;;;;;;;4999335;28;99546;-66
2024/01/19 04:39:02;;;;;;;6.88;1.98;;;;;;;;;;4998502;28;99043;-66
2024/01/19 04:41:28;;;;;;;11.93;2.53;;;;;;;;;;4997830;28;99497;-67
2024/01/19 04:43:55;;;;;;;7.45;2.33;;;;;;;;;;4997712;28;98833;-66
2024/01/19 04:46:21;;;;;;;17.83;2.72;;;;;;;;;;4994094;28;98622;-67
2024/01/19 04:48:47;;;;;;;11.20;2.55;;;;;;;;;;5000017;28;98914;-67
2024/01/19 04:51:15;;;;;;;8.00;1.80;;;;;;;;;;4995039;28;99351;-66
2024/01/19 04:53:41;;;;;;;9.93;2.72;;;;;;;;;;5000798;28;99793;-66
2024/01/19 04:56:07;;;;;;;7.13;2.47;;;;;;;;;;4997047;28;99599;-67
2024/01/19 04:58:35;;;;;;;8.38;2.75;;;;;;;;;;4995753;28;98694;-66
2024/01/19 05:01:01;;;;;;;6.97;2.38;;;;;;;;;;4999584;28;99163;-67
2024/01/19 05:03:28;;;;;;;5.40;1.95;;;;;;;;;;4998534;28;100395;-66
2024/01/19 05:05:54;;;;;;;4.18;1.92;;;;;;;;;;4993851;28;98543;-66
2024/01/19 05:08:21;;;;;;;5.97;1.75;;;;;;;;;;4992014;28;99336;-66
2024/01/19 05:10:47;;;;;;;6.80;3.13;;;;;;;;;;5003790;28;100611;-67
2024/01/19 05:13:14;;;;;;;11.77;3.28;;;;;;;;;;4995529;28;99112;-67
2024/01/19 05:15:41;;;;;;;6.43;2.30;;;;;;;;;;4995069;28;101190;-68
2024/01/19 05:18:08;;;;;;;4.82;1.52;;;;;;;;;;4996146;28;98907;-67
2024/01/19 05:20:34;;;;;;;3.80;2.20;;;;;;;;;;4993978;28;99331;-67
2024/01/19 05:23:00;;;;;;;6.70;1.50;;;;;;;;;;4994781;28;99887;-67
2024/01/19 05:25:27;;;;;;;4.30;1.67;;;;;;;;;;4991570;28;98840;-67
2024/01/19 05:27:54;;;;;;;8.85;3.10;;;;;;;;;;4993711;28;99418;-67
2024/01/19 05:30:20;;;;;;;5.20;2.13;;;;;;;;;;4995235;28;99471;-67
2024/01/19 05:32:47;;;;;;;4.55;1.40;;;;;;;;;;4999832;28;97823;-67
2024/01/19 05:35:13;;;;;;;7.00;1.80;;;;;;;;;;4998119;28;100218;-67
2024/01/19 05:37:40;;;;;;;4.07;1.30;;;;;;;;;;4998324;28;98809;-67
2024/01/19 05:40:06;;;;;;;10.48;1.75;;;;;;;;;;4995312;28;100688;-67
2024/01/19 05:42:33;;;;;;;7.25;1.80;;;;;;;;;;4995495;28;100744;-67
2024/01/19 05:45:00;;;;;;;5.68;2.63;;;;;;;;;;4999395;28;98546;-69
2024/01/19 05:47:27;;;;;;;6.32;1.38;;;;;;;;;;4996241;28;101666;-67
2024/01/19 05:49:53;;;;;;;2.10;1.20;;;;;;;;;;4994667;28;99478;-68
2024/01/19 05:52:19;;;;;;;6.88;1.27;;;;;;;;;;4995757;28;98704;-67
2024/01/19 05:54:46;;;;;;;4.18;1.70;;;;;;;;;;4998865;28;100291;-67
2024/01/19 05:57:12;;;;;;;4.03;2.00;;;;;;;;;;4997268;28;97866;-67
2024/01/19 05:59:39;;;;;;;2.88;1.90;;;;;;;;;;4997189;28;98876;-67
2024/01/19 06:02:06;;;;;;;7.05;2.50;;;;;;;;;;4995358;28;99783;-67
2024/01/19 06:04:40;;;;;;;4.78;2.20;;;;;;;;;;4998461;28;99253;-67
2024/01/19 06:07:07;;;;;;;3.30;1.90;;;;;;;;;;4994842;28;99859;-67
2024/01/19 06:09:33;;;;;;;6.65;2.67;;;;;;;;;;4996550;28;101988;-67
2024/01/19 06:12:00;;;;;;;4.53;2.13;;;;;;;;;;4995734;28;98465;-67
2024/01/19 06:14:26;;;;;;;5.40;2.85;;;;;;;;;;5005765;28;99260;-67
2024/01/19 06:16:53;;;;;;;5.15;3.08;;;;;;;;;;4995149;28;98652;-67
2024/01/19 06:19:19;;;;;;;4.80;2.30;;;;;;;;;;4995437;28;99128;-67
2024/01/19 06:21:46;;;;;;;9.15;2.75;;;;;;;;;;4992949;28;98812;-67
2024/01/19 06:24:14;;;;;;;5.50;3.10;;;;;;;;;;4977984;28;101257;-67
2024/01/19 06:26:47;;;;;;;7.30;3.85;;;;;;;;;;4995861;28;99130;-67
2024/01/19 06:29:14;;;;;;;11.85;3.88;;;;;;;;;;4993329;28;100448;-67
2024/01/19 06:31:47;;;;;;;6.88;3.55;;;;;;;;;;4998566;28;98509;-67
2024/01/19 06:34:13;;;;;;;6.85;3.25;;;;;;;;;;4995462;28;100823;-67
2024/01/19 06:36:44;;;;;;;9.10;2.97;;;;;;;;;;5001629;28;99757;-67
2024/01/19 06:39:11;;;;;;;3.67;2.97;;;;;;;;;;4998066;28;99112;-67
2024/01/19 06:41:44;;;;;;;5.43;2.75;;;;;;;;;;4999335;28;99472;-67
2024/01/19 06:44:11;;;;;;;6.20;2.80;;;;;;;;;;4998714;28;98608;-67
2024/01/19 06:46:37;;;;;;;5.38;2.88;;;;;;;;;;5002187;28;100366;-67
2024/01/19 06:49:04;;;;;;;10.30;4.13;;;;;;;;;;4994014;28;99766;-67
2024/01/19 06:51:32;;;;;;;8.65;4.32;;;;;;;;;;5003064;28;98586;-67
2024/01/19 06:53:58;;;;;;;11.70;6.13;;;;;;;;;;5001359;28;99309;-67
2024/01/19 06:56:25;;;;;;;13.02;6.18;;;;;;;;;;4996128;28;100813;-67
2024/01/19 06:58:52;;;;;;;14.93;7.07;;;;;;;;;;5005489;28;98596;-67
2024/01/19 07:01:18;;;;;;;15.68;8.63;;;;;;;;;;5000070;28;99517;-67
2024/01/19 07:03:44;;;;;;;14.85;7.38;;;;;;;;;;4997734;28;98518;-67
2024/01/19 07:06:11;;;;;;;10.70;5.78;;;;;;;;;;4996699;28;99204;-67
2024/01/19 07:08:37;;;;;;;13.02;5.22;;;;;;;;;;4999614;28;99564;-67
2024/01/19 07:11:04;;;;;;;12.13;5.25;;;;;;;;;;5001524;28;98032;-67
2024/01/19 07:13:30;;;;;;;9.48;5.00;;;;;;;;;;5000892;28;98770;-67
2024/01/19 07:15:56;;;;;;;6.95;4.40;;;;;;;;;;4999095;28;99950;-67
2024/01/19 07:18:23;;;;;;;9.60;4.32;;;;;;;;;;5000576;28;99292;-67
2024/01/19 07:20:50;;;;;;;11.07;4.50;;;;;;;;;;5000363;28;100052;-67
2024/01/19 07:23:16;;;;;;;11.88;4.50;;;;;;;;;;4998116;28;98480;-67
2024/01/19 07:25:42;;;;;;;9.10;4.68;;;;;;;;;;4998516;28;99531;-67
2024/01/19 07:28:09;;;;;;;12.27;4.55;;;;;;;;;;4995764;28;100003;-67
2024/01/19 07:30:38;;;;;;;12.77;4.20;;;;;;;;;;4997906;28;98485;-67
2024/01/19 07:33:04;;;;;;;11.82;4.22;;;;;;;;;;4998425;28;99179;-67
2024/01/19 07:35:39;;;;;;;8.02;4.20;;;;;;;;;;4999724;28;98743;-67
2024/01/19 07:38:06;;;;;;;10.80;4.63;;;;;;;;;;4997606;28;98572;-67
2024/01/19 07:40:33;;;;;;;11.20;5.35;;;;;;;;;;4994726;28;99172;-67
2024/01/19 07:42:59;;;;;;;14.25;4.38;;;;;;;;;;5003530;28;101326;-67
2024/01/19 07:45:25;;;;;;;12.48;5.22;;;;;;;;;;4997959;28;99946;-66
2024/01/19 07:47:52;;;;;;;9.82;5.25;;;;;;;;;;4995222;28;99790;-69
2024/01/19 07:50:18;;;;;;;9.55;4.93;;;;;;;;;;4990941;28;99012;-68
2024/01/19 07:52:44;;;;;;;11.85;5.10;;;;;;;;;;4996653;28;99242;-68
2024/01/19 07:55:11;;;;;;;13.52;6.10;;;;;;;;;;4997675;28;99491;-68
2024/01/19 07:57:37;;;;;;;18.52;5.43;;;;;;;;;;4999515;28;98618;-68
2024/01/19 08:00:04;;;;;;;13.07;6.72;;;;;;;;;;4997717;28;98304;-67
2024/01/19 08:02:31;;;;;;;20.23;7.07;;;;;;;;;;5000514;28;99449;-67
2024/01/19 08:04:57;;;;;;;19.45;6.78;;;;;;;;;;4998132;28;98815;-66
2024/01/19 08:07:25;;;;;;;11.13;6.07;;;;;;;;;;4997253;28;100562;-67
2024/01/19 08:09:51;;;;;;;12.48;6.85;;;;;;;;;;4998063;28;98527;-68
2024/01/19 08:12:18;;;;;;;8.38;5.72;;;;;;;;;;5000139;28;99525;-69
2024/01/19 08:14:46;;;;;;;17.15;5.50;;;;;;;;;;4996368;28;99459;-66
2024/01/19 08:17:12;;;;;;;14.25;5.28;;;;;;;;;;4994299;28;98571;-66
2024/01/19 08:19:38;;;;;;;16.70;5.45;;;;;;;;;;4997049;28;99189;-67
2024/01/19 08:22:05;;;;;;;14.45;5.68;;;;;;;;;;4996487;28;99506;-67
2024/01/19 08:24:35;;;;;;;16.10;5.80;;;;;;;;;;5002042;28;98037;-68
2024/01/19 08:27:01;;;;;;;13.37;5.90;;;;;;;;;;4993947;28;102457;-69
2024/01/19 08:29:27;;;;;;;11.23;5.15;;;;;;;;;;4993508;28;98759;-68
2024/01/19 08:31:54;;;;;;;12.60;5.57;;;;;;;;;;4996757;28;99916;-69
2024/01/19 08:34:22;;;;;;;9.85;4.85;;;;;;;;;;4999237;28;99885;-69
2024/01/19 08:36:48;;;;;;;14.65;5.15;;;;;;;;;;4999895;28;98431;-68
2024/01/19 08:39:14;;;;;;;12.77;5.65;;;;;;;;;;4997831;28;100255;-69
2024/01/19 08:41:44;;;;;;;15.27;5.55;;;;;;;;;;4997270;28;100387;-69
2024/01/19 08:44:10;;;;;;;16.70;5.75;;;;;;;;;;4993601;28;99132;-70
2024/01/19 08:46:43;;;;;;;16.30;5.95;;;;;;;;;;4994023;28;99500;-77
2024/01/19 08:49:10;;;;;;;15.77;6.25;;;;;;;;;;4993291;28;99050;-70
2024/01/19 08:51:37;;;;;;;18.75;7.28;;;;;;;;;;4989338;28;98582;-70
2024/01/19 08:54:04;;;;;;;17.90;6.88;;;;;;;;;;4997526;28;101063;-70
2024/01/19 08:56:31;;;;;;;15.18;6.50;;;;;;;;;;4996287;28;99360;-70
2024/01/19 08:58:58;;;;;;;13.25;6.05;;;;;;;;;;4996175;28;99905;-70
2024/01/19 09:01:24;;;;;;;12.73;6.25;;;;;;;;;;4996973;28;99792;-70
2024/01/19 09:03:50;;;;;;;10.68;5.45;;;;;;;;;;5000225;28;98512;-70
2024/01/19 09:06:17;;;;;;;15.20;5.35;;;;;;;;;;4999059;28;99590;-70
2024/01/19 09:08:44;;;;;;;12.75;5.15;;;;;;;;;;5000967;28;100466;-70
2024/01/19 09:11:11;;;;;;;18.92;6.80;;;;;;;;;;4998153;28;99195;-70
2024/01/19 09:13:38;;;;;;;16.60;6.57;;;;;;;;;;5001573;28;98883;-70
2024/01/19 09:16:05;;;;;;;9.75;5.22;;;;;;;;;;4997016;28;98809;-70
2024/01/19 09:18:32;;;;;;;15.60;6.45;;;;;;;;;;4994847;28;99162;-70
2024/01/19 09:20:58;;;;;;;16.60;7.20;;;;;;;;;;4995304;28;100181;-70
2024/01/19 09:23:25;;;;;;;13.75;5.40;;;;;;;;;;4995738;28;98685;-70
2024/01/19 09:25:51;;;;;;;11.82;5.35;;;;;;;;;;4999388;28;99185;-70
2024/01/19 09:28:18;;;;;;;12.52;5.78;;;;;;;;;;4998541;28;99819;-70
2024/01/19 09:30:44;;;;;;;13.88;5.22;;;;;;;;;;5001399;28;98625;-70
2024/01/19 09:33:11;;;;;;;20.95;6.07;;;;;;;;;;4999449;28;99590;-70
2024/01/19 09:35:37;;;;;;;13.43;5.55;;;;;;;;;;5000613;28;98806;-70
2024/01/19 09:38:03;;;;;;;16.92;6.25;;;;;;;;;;4997334;28;100350;-70
2024/01/19 09:40:30;;;;;;;13.73;5.38;;;;;;;;;;4999770;28;99932;-70
2024/01/19 09:42:56;;;;;;;16.70;6.75;;;;;;;;;;4992860;28;98837;-70
2024/01/19 09:45:25;;;;;;;14.20;5.10;;;;;;;;;;4998798;28;99505;-70
2024/01/19 09:48:10;;;;;;;11.50;5.38;;;;;;;;;;4993402;28;99877;-70
2024/01/19 09:50:38;;;;;;;13.07;4.63;;;;;;;;;;4988571;28;99044;-70
2024/01/19 09:53:12;;;;;;;9.40;4.07;;;;;;;;;;4996531;28;99379;-70
2024/01/19 09:55:38;;;;;;;7.82;3.40;;;;;;;;;;4996856;28;98769;-71
2024/01/19 09:58:06;;;;;;;12.38;3.83;;;;;;;;;;4992973;28;99155;-68
2024/01/19 10:00:32;;;;;;;9.60;3.13;;;;;;;;;;4997368;28;99401;-68
2024/01/19 10:02:59;;;;;;;8.75;3.90;;;;;;;;;;4995140;28;97851;-69
2024/01/19 10:05:28;;;;;;;10.43;4.65;;;;;;;;;;4993712;28;98891;-70
2024/01/19 10:07:57;;;;;;;7.43;3.53;;;;;;;;;;4997289;28;98509;-68
2024/01/19 10:10:25;;;;;;;10.43;4.28;;;;;;;;;;4993633;28;100648;-69
2024/01/19 10:12:52;;;;;;;7.78;4.43;;;;;;;;;;4999170;28;100939;-69
2024/01/19 10:15:19;;;;;;;11.13;4.80;;;;;;;;;;5000815;28;98649;-69
2024/01/19 10:17:45;;;;;;;9.35;2.88;;;;;;;;;;4999165;28;99314;-70
2024/01/19 10:20:13;;;;;;;9.35;3.75;;;;;;;;;;4998486;28;99845;-71
2024/01/19 10:22:39;;;;;;;9.48;3.30;;;;;;;;;;5003502;28;98479;-70
2024/01/19 10:25:10;;;;;;;12.88;3.63;;;;;;;;;;4999466;28;100488;-69
2024/01/19 10:27:40;;;;;;;7.18;3.50;;;;;;;;;;4991681;28;99736;-70
2024/01/19 10:30:09;;;;;;;12.30;3.35;;;;;;;;;;4999999;28;98460;-69
2024/01/19 10:32:37;;;;;;;16.25;6.15;;;;;;;;;;5000875;28;99517;-70
2024/01/19 10:35:05;;;;;;;15.13;4.13;;;;;;;;;;5000493;28;102838;-70
2024/01/19 10:37:32;;;;;;;8.25;2.95;;;;;;;;;;4988499;28;99921;-70
2024/01/19 10:40:12;;;;;;;14.65;4.57;;;;;;;;;;4996755;28;99491;-70
2024/01/19 10:42:42;;;;;;;20.17;4.82;;;;;;;;;;4995918;28;98654;-70
2024/01/19 10:45:20;;;;;;;11.45;3.50;;;;;;;;;;4995958;28;99427;-70
2024/01/19 10:47:48;;;;;;;23.02;4.65;;;;;;;;;;4996695;28;99610;-70
2024/01/19 10:50:15;;;;;;;20.30;5.38;;;;;;;;;;4999509;28;98510;-70
2024/01/19 10:52:42;;;;;;;6.90;3.42;;;;;;;;;;4999638;28;99516;-70
2024/01/19 10:55:09;;;;;;;17.73;4.32;;;;;;;;;;5002164;28;99550;-70
2024/01/19 10:57:37;;;;;;;8.70;2.72;;;;;;;;;;4998315;28;98757;-70
2024/01/19 11:00:19;;;;;;;10.85;3.50;;;;;;;;;;5001877;28;100411;-70
2024/01/19 11:02:55;;;;;;;9.40;3.03;;;;;;;;;;4995768;28;98538;-70
2024/01/19 11:05:22;;;;;;;15.65;4.28;;;;;;;;;;5003461;28;100189;-70
2024/01/19 11:07:50;;;;;;;8.75;3.20;;;;;;;;;;5000998;28;99593;-70
2024/01/19 11:10:17;;;;;;;10.27;3.75;;;;;;;;;;5000489;28;98553;-70
2024/01/19 11:12:51;;;;;;;6.80;2.70;;;;;;;;;;5002313;28;99470;-70
2024/01/19 11:15:38;;;;;;;11.55;3.80;;;;;;;;;;4999535;28;99519;-70
2024/01/19 11:18:06;;;;;;;7.97;3.33;;;;;;;;;;4999864;28;97822;-70
2024/01/19 11:20:33;;;;;;;23.85;3.67;;;;;;;;;;5002566;28;99055;-70
2024/01/19 11:23:01;;;;;;;8.48;3.00;;;;;;;;;;4997808;28;98574;-70
2024/01/19 11:25:49;;;;;;;11.10;2.60;;;;;;;;;;5000368;28;99433;-70
2024/01/19 11:28:37;;;;;;;8.15;2.70;;;;;;;;;;4999618;28;99856;-70
2024/01/19 11:31:13;;;;;;;16.58;2.50;;;;;;;;;;4999275;28;98604;-70
2024/01/19 11:33:40;;;;;;;9.32;3.25;;;;;;;;;;4999569;28;98717;-70
2024/01/19 11:36:07;;;;;;;7.63;2.55;;;;;;;;;;4997187;28;99476;-70
2024/01/19 11:38:36;;;;;;;7.03;2.47;;;;;;;;;;5002510;28;98834;-70
2024/01/19 11:41:03;;;;;;;10.18;3.25;;;;;;;;;;4999742;28;99405;-70
2024/01/19 11:43:39;;;;;;;7.45;2.47;;;;;;;;;;5002758;28;99052;-70
2024/01/19 11:46:06;;;;;;;11.75;2.90;;;;;;;;;;4998751;28;98729;-71
2024/01/19 11:48:40;;;;;;;14.65;2.80;;;;;;;;;;5001133;28;99461;-70
2024/01/19 11:51:07;;;;;;;8.68;2.63;;;;;;;;;;5000512;28;99356;-70
2024/01/19 11:53:52;;;;;;;13.18;2.97;;;;;;;;;;4996796;28;99865;-70
2024/01/19 11:56:22;;;;;;;14.02;2.85;;;;;;;;;;4995854;28;101204;-70
2024/01/19 11:58:48;;;;;;;20.52;5.38;;;;;;;;;;4998729;28;99406;-70
2024/01/19 12:01:15;;;;;;;10.13;3.30;;;;;;;;;;4997000;28;99219;-70
2024/01/19 12:03:42;;;;;;;15.38;3.30;;;;;;;;;;4998041;28;100163;-70
2024/01/19 12:06:08;;;;;;;11.15;3.00;;;;;;;;;;4993373;28;98633;-70
2024/01/19 12:08:35;;;;;;;17.85;3.10;;;;;;;;;;4998929;28;97741;-70
2024/01/19 12:11:02;;;;;;;9.23;2.72;;;;;;;;;;5000211;28;98612;-70
2024/01/19 12:13:30;;;;;;;13.18;4.22;;;;;;;;;;5000243;28;99094;-70
2024/01/19 12:15:57;;;;;;;14.85;3.65;;;;;;;;;;4995232;28;100320;-70
2024/01/19 12:18:23;;;;;;;12.88;4.90;;;;;;;;;;4992779;28;98507;-70
2024/01/19 12:20:54;;;;;;;7.78;3.10;;;;;;;;;;4996258;28;99325;-70
2024/01/19 12:23:21;;;;;;;21.42;3.95;;;;;;;;;;4997217;28;99776;-70
2024/01/19 12:25:48;;;;;;;16.65;4.60;;;;;;;;;;5003903;28;98568;-70
2024/01/19 12:28:15;;;;;;;19.17;6.20;;;;;;;;;;4997992;28;99977;-70
2024/01/19 12:30:42;;;;;;;24.80;7.82;;;;;;;;;;4998375;28;98844;-70
2024/01/19 12:33:13;;;;;;;12.50;3.58;;;;;;;;;;4997150;28;99180;-70
2024/01/19 12:35:40;;;;;;;14.63;3.80;;;;;;;;;;4993796;28;99775;-70
2024/01/19 12:38:06;;;;;;;10.93;3.70;;;;;;;;;;5001028;28;98578;-70
2024/01/19 12:40:33;;;;;;;16.77;4.85;;;;;;;;;;4996497;28;99438;-70
2024/01/19 12:43:03;;;;;;;12.75;3.88;;;;;;;;;;4994253;28;99474;-70
2024/01/19 12:45:30;;;;;;;16.13;4.10;;;;;;;;;;4998988;28;98622;-70
2024/01/19 12:47:59;;;;;;;13.63;3.33;;;;;;;;;;5004221;28;99107;-71
2024/01/19 12:50:26;;;;;;;;;;;;;;;;;;4998884;28;98464;-69
2024/01/19 12:52:53;;;;;;;17.52;4.20;;;;;;;;;;4996959;28;129732;-70
2024/01/19 12:55:26;;;;;;;9.68;3.42;;;;;;;;;;4997291;28;99370;-69
2024/01/19 12:57:52;;;;;;;17.50;4.13;;;;;;;;;;5001579;28;97962;-70
2024/01/19 13:00:22;;;;;;;9.65;3.28;;;;;;;;;;5000327;28;98793;-69
2024/01/19 13:02:51;;;;;;;11.67;3.87;;;;;;;;;;4995237;28;99499;-70
2024/01/19 13:05:18;;;;;;;11.25;4.18;;;;;;;;;;4997023;28;99240;-70
2024/01/19 13:07:46;;;;;;;8.10;2.95;;;;;;;;;;4996172;28;99918;-70
2024/01/19 13:10:18;;;;;;;13.05;3.70;;;;;;;;;;5000306;28;99518;-70
2024/01/19 13:12:48;;;;;;;16.50;3.40;;;;;;;;;;4993889;28;99208;-70
2024/01/19 13:15:16;;;;;;;14.48;3.72;;;;;;;;;;4993407;28;99502;-70
2024/01/19 13:17:43;;;;;;;11.75;3.97;;;;;;;;;;4990152;28;98920;-69
2024/01/19 13:20:22;;;;;;;9.00;3.10;;;;;;;;;;4997547;28;102319;-70
2024/01/19 13:22:49;;;;;;;15.18;3.50;;;;;;;;;;4994116;28;98734;-70
2024/01/19 13:25:15;;;;;;;14.10;3.85;;;;;;;;;;5000430;28;98603;-69
2024/01/19 13:27:42;;;;;;;14.95;3.22;;;;;;;;;;4994098;28;99166;-70
2024/01/19 13:30:08;;;;;;;14.05;3.10;;;;;;;;;;4995086;28;100208;-70
2024/01/19 13:32:36;;;;;;;6.32;2.58;;;;;;;;;;5002715;28;98674;-70
2024/01/19 13:35:03;;;;;;;13.02;3.13;;;;;;;;;;4997981;28;100069;-70
2024/01/19 13:37:29;;;;;;;11.93;2.70;;;;;;;;;;4993580;28;98583;-70
2024/01/19 13:39:57;;;;;;;9.38;3.08;;;;;;;;;;4997214;28;101214;-70
2024/01/19 13:42:23;;;;;;;19.90;3.25;;;;;;;;;;4997624;28;100122;-70
2024/01/19 13:44:49;;;;;;;9.52;3.63;;;;;;;;;;4998840;28;98478;-70
2024/01/19 13:47:16;;;;;;;9.68;2.92;;;;;;;;;;4997035;28;100280;-70
2024/01/19 13:49:42;;;;;;;11.85;4.32;;;;;;;;;;4993163;28;99597;-71
2024/01/19 13:52:10;;;;;;;9.27;3.13;;;;;;;;;;5000131;28;98663;-70
2024/01/19 13:54:37;;;;;;;15.70;3.65;;;;;;;;;;4989511;28;99729;-70
2024/01/19 13:57:03;;;;;;;10.45;3.40;;;;;;;;;;4994360;28;98973;-70
2024/01/19 13:59:30;;;;;;;14.05;3.88;;;;;;;;;;4992692;28;100249;-70
2024/01/19 14:01:56;;;;;;;12.13;4.10;;;;;;;;;;4993168;28;99805;-68
2024/01/19 14:04:23;;;;;;;17.40;3.95;;;;;;;;;;4999419;28;98649;-71
2024/01/19 14:06:49;;;;;;;9.48;3.58;;;;;;;;;;4986485;28;99363;-70
2024/01/19 14:09:16;;;;;;;11.00;3.15;;;;;;;;;;4989871;28;99825;-71
2024/01/19 14:11:43;;;;;;;9.57;3.13;;;;;;;;;;4987793;28;98049;-70
2024/01/19 14:14:10;;;;;;;10.18;3.95;;;;;;;;;;5031938;27;99612;-70
2024/01/19 14:16:36;;;;;;;17.13;5.55;;;;;;;;;;4998982;28;99838;-70
2024/01/19 14:19:04;;;;;;;10.95;3.40;;;;;;;;;;4995152;28;99887;-70
2024/01/19 14:21:30;;;;;;;7.95;3.13;;;;;;;;;;4987400;28;99522;-69
2024/01/19 14:23:57;;;;;;;9.77;3.60;;;;;;;;;;4994992;28;98607;-69
2024/01/19 14:26:23;;;;;;;14.43;4.90;;;;;;;;;;4996202;28;99519;-69
2024/01/19 14:28:50;;;;;;;15.75;4.03;;;;;;;;;;4994406;28;99735;-68
2024/01/19 14:31:16;;;;;;;7.35;3.05;;;;;;;;;;4997689;28;98469;-68
2024/01/19 14:33:43;;;;;;;11.38;3.72;;;;;;;;;;4996105;28;99127;-69
2024/01/19 14:36:09;;;;;;;11.13;3.85;;;;;;;;;;4998415;28;98831;-69